KCEF/CEF METAR and TAF weather

Enter ICAO airport designator
Station Type Date Time Source
KCEF METAR 2022/12/02 21:55 UTC NOAA

KCEF 022155Z 20009KT 10SM BKN120 BKN250 04/M06 A3043 RMK AO2A SLP313 T00421056


Station Type Date Time Source
KCEF Decoded METAR 2022/12/02 21:55 UTC NOAA

Chicopee Falls / Westover Air Force Base, MA, United States (KCEF) 42-12N 072-32W 75M
Dec 02, 2022 - 04:55 PM EST / 2022.12.02 2155 UTC
Wind: from the SSW (200 degrees) at 10 MPH (9 KT):0
Visibility: 10 mile(s):0
Sky conditions: mostly cloudy
Temperature: 39.6 F (4.2 C)
Dew Point: 21.9 F (-5.6 C)
Relative Humidity: 48%
Pressure (altimeter): 30.43 in. Hg (1030 hPa)
ob: KCEF 022155Z 20009KT 10SM BKN120 BKN250 04/M06 A3043 RMK AO2A SLP313 T00421056
cycle: 22

Station Type Date Time Source
KCEF TAF 2022/12/02 19:09 UTC NOAA

TAF KCEF 021900Z 0219/0401 21009KT 9999 SCT120 BKN250 QNH3036INS
BECMG 0305/0306 19009KT 9999 SCT023 BKN090 WS015/20033KT 520153 QNH3020INS
BECMG 0310/0311 19009KT 9999 FEW009 OVC018 WS015/20033KT 520153 QNH3013INS
BECMG 0312/0313 21010G15KT 8000 -RA BR SCT005 OVC008 620805 530104 QNH2988INS
TEMPO 0313/0321 21015G25KT 6000 RA BR OVC005 530005
BECMG 0320/0321 23015G25KT 9999 VCSH FEW007 BKN015 OVC070 610702 520005 QNH2988INS
BECMG 0322/0323 29015G25KT 9999 NSW SCT040 520007 QNH2995INS TX11/0319Z TNM02/0305Z

Example: see airport list